Augusta, GA

8:01 PM EDT on July 30, 2016 (GMT -0400)
Crossroads Market | | Change Station

Elev 279 ft 33.49 °N, 81.96 °W | Updated 6 seconds ago

Light Rain
Light Rain
74.8 °F
Feels Like 74 °F
N
0.0
Wind Variable Wind from West
Gusts 0.0 mph

Today
High -- | Low -- °F
--% Chance of Precip.
Yesterday
High -- | Low -- °F
Precip. -- in
Pressure 29.97 in
Visibility 10.0 miles
Clouds Few 11000 ft
Heat Index 74 °F
Dew Point 72 °F
Humidity 90%
Rainfall 0.11 in
Snow Depth Not available.
6:39 AM 8:28 PM
Waning Crescent, 10% visible
METAR KDNL 302353Z AUTO VRB03KT 10SM -RA FEW110 24/22 A2998 RMK AO2 LTG DSNT E AND SE TSE40 PRESFR SLP148 P0027 60048 T02390217 10339 20233 50004
Pressure 29.97 in
Visibility 10.0 miles
Clouds Few 11000 ft
Heat Index 74 °F
Dew Point 72 °F
Humidity 90%
Rainfall 0.11 in
Snow Depth Not available.
6:39 AM 8:28 PM
Waning Crescent, 10% visible
METAR KDNL 302353Z AUTO VRB03KT 10SM -RA FEW110 24/22 A2998 RMK AO2 LTG DSNT E AND SE TSE40 PRESFR SLP148 P0027 60048 T02390217 10339 20233 50004

10-Day Weather Forecast

Almanac

Astronomy

Jul. 30, 2016 Rise Set
Actual Time
Civil Twilight
Nautical Twilight
Astronomical Twilight
Moon
Length of Visible Light
Length of Day
Tomorrow will be .
, % of the Moon is Illuminated

Today's Extremes

State Highs State Lows

Community

WunderPhotos

Upload Photos

1,928,682 photos uploaded!

WunderBlog® & News

Nearby

Air Quality

  Air Quality AQ Index Pollutant
Not available.

Snow Depth

Station Depth Elevation

Earthquake Activity

City Distance Mag. Time & Date
Minimum magnitude displayed is 2.5.

Coastal Water Temperatures

Place Temperature

Stations

Nearby Weather Stations

Station Location Temp. Windchill Dew Point Humidity Wind Precip. Elev Updated Type
                   

Watches & Warnings

There are currently no watches in effect.